sensor_id;sensor_type;location;lat;lon;timestamp;temperature;humidity
68385;DHT22;55336;43.062;25.626;2023-06-04T00:00:49;17.40;99.90
68385;DHT22;55336;43.062;25.626;2023-06-04T00:03:15;17.40;99.90
68385;DHT22;55336;43.062;25.626;2023-06-04T00:05:41;17.40;99.90
68385;DHT22;55336;43.062;25.626;2023-06-04T00:08:07;17.40;99.90
68385;DHT22;55336;43.062;25.626;2023-06-04T00:10:33;17.40;99.90
68385;DHT22;55336;43.062;25.626;2023-06-04T00:13:00;17.30;99.90
68385;DHT22;55336;43.062;25.626;2023-06-04T00:15:26;17.30;99.90
68385;DHT22;55336;43.062;25.626;2023-06-04T00:17:51;17.30;99.90
68385;DHT22;55336;43.062;25.626;2023-06-04T00:20:18;17.30;99.90
68385;DHT22;55336;43.062;25.626;2023-06-04T00:22:44;17.40;99.90
68385;DHT22;55336;43.062;25.626;2023-06-04T00:25:10;17.40;99.90
68385;DHT22;55336;43.062;25.626;2023-06-04T00:27:36;17.30;99.90
68385;DHT22;55336;43.062;25.626;2023-06-04T00:30:02;17.30;99.90
68385;DHT22;55336;43.062;25.626;2023-06-04T00:32:28;17.40;99.90
68385;DHT22;55336;43.062;25.626;2023-06-04T00:34:54;17.30;99.90
68385;DHT22;55336;43.062;25.626;2023-06-04T00:37:24;17.20;99.90
68385;DHT22;55336;43.062;25.626;2023-06-04T00:39:50;17.20;99.90
68385;DHT22;55336;43.062;25.626;2023-06-04T00:42:17;17.20;99.90
68385;DHT22;55336;43.062;25.626;2023-06-04T00:44:43;17.20;99.90
68385;DHT22;55336;43.062;25.626;2023-06-04T00:47:14;17.20;99.90
68385;DHT22;55336;43.062;25.626;2023-06-04T00:49:41;17.30;99.90
68385;DHT22;55336;43.062;25.626;2023-06-04T00:52:11;17.40;99.90
68385;DHT22;55336;43.062;25.626;2023-06-04T00:54:39;17.40;99.90
68385;DHT22;55336;43.062;25.626;2023-06-04T00:57:06;17.40;99.90
68385;DHT22;55336;43.062;25.626;2023-06-04T00:59:33;17.40;99.90
68385;DHT22;55336;43.062;25.626;2023-06-04T01:02:08;17.50;99.90
68385;DHT22;55336;43.062;25.626;2023-06-04T01:04:39;17.50;99.90
68385;DHT22;55336;43.062;25.626;2023-06-04T01:07:09;17.60;99.90
68385;DHT22;55336;43.062;25.626;2023-06-04T01:09:36;17.60;99.90
68385;DHT22;55336;43.062;25.626;2023-06-04T01:12:08;17.60;99.90
68385;DHT22;55336;43.062;25.626;2023-06-04T01:14:34;17.60;99.90
68385;DHT22;55336;43.062;25.626;2023-06-04T01:17:01;17.60;99.90
68385;DHT22;55336;43.062;25.626;2023-06-04T01:27:55;17.50;99.90
68385;DHT22;55336;43.062;25.626;2023-06-04T01:30:30;17.40;99.90
68385;DHT22;55336;43.062;25.626;2023-06-04T01:32:58;17.40;99.90
68385;DHT22;55336;43.062;25.626;2023-06-04T01:35:26;17.30;99.90
68385;DHT22;55336;43.062;25.626;2023-06-04T01:37:52;17.20;99.90
68385;DHT22;55336;43.062;25.626;2023-06-04T01:40:18;17.20;99.90
68385;DHT22;55336;43.062;25.626;2023-06-04T01:42:44;17.20;99.90
68385;DHT22;55336;43.062;25.626;2023-06-04T01:45:10;17.20;99.90
68385;DHT22;55336;43.062;25.626;2023-06-04T01:47:36;17.20;99.90
68385;DHT22;55336;43.062;25.626;2023-06-04T01:50:03;17.20;99.90
68385;DHT22;55336;43.062;25.626;2023-06-04T01:52:29;17.20;99.90
68385;DHT22;55336;43.062;25.626;2023-06-04T01:54:55;17.20;99.90
68385;DHT22;55336;43.062;25.626;2023-06-04T01:57:25;17.20;99.90
68385;DHT22;55336;43.062;25.626;2023-06-04T01:59:50;17.10;99.90
68385;DHT22;55336;43.062;25.626;2023-06-04T02:02:17;17.10;99.90
68385;DHT22;55336;43.062;25.626;2023-06-04T02:04:44;17.10;99.90
68385;DHT22;55336;43.062;25.626;2023-06-04T02:07:11;17.10;99.90
68385;DHT22;55336;43.062;25.626;2023-06-04T02:09:39;17.10;99.90
68385;DHT22;55336;43.062;25.626;2023-06-04T02:12:06;17.10;99.90
68385;DHT22;55336;43.062;25.626;2023-06-04T02:14:32;17.00;99.90
68385;DHT22;55336;43.062;25.626;2023-06-04T02:16:58;17.00;99.90
68385;DHT22;55336;43.062;25.626;2023-06-04T02:19:24;17.00;99.90
68385;DHT22;55336;43.062;25.626;2023-06-04T02:21:52;16.90;99.90
68385;DHT22;55336;43.062;25.626;2023-06-04T02:24:18;16.90;99.90
68385;DHT22;55336;43.062;25.626;2023-06-04T02:26:44;16.80;99.90
68385;DHT22;55336;43.062;25.626;2023-06-04T02:29:10;16.80;99.90
68385;DHT22;55336;43.062;25.626;2023-06-04T02:31:35;16.80;99.90
68385;DHT22;55336;43.062;25.626;2023-06-04T02:34:02;16.80;99.90
68385;DHT22;55336;43.062;25.626;2023-06-04T02:36:28;16.70;99.90
68385;DHT22;55336;43.062;25.626;2023-06-04T02:38:54;16.70;99.90
68385;DHT22;55336;43.062;25.626;2023-06-04T02:41:21;16.60;99.90
68385;DHT22;55336;43.062;25.626;2023-06-04T02:43:49;16.60;99.90
68385;DHT22;55336;43.062;25.626;2023-06-04T02:46:15;16.60;99.90
68385;DHT22;55336;43.062;25.626;2023-06-04T02:48:41;16.60;99.90
68385;DHT22;55336;43.062;25.626;2023-06-04T02:51:07;16.50;99.90
68385;DHT22;55336;43.062;25.626;2023-06-04T02:53:36;16.50;99.90
68385;DHT22;55336;43.062;25.626;2023-06-04T02:56:02;16.50;99.90
68385;DHT22;55336;43.062;25.626;2023-06-04T02:58:28;16.50;99.90
68385;DHT22;55336;43.062;25.626;2023-06-04T03:00:54;16.50;99.90
68385;DHT22;55336;43.062;25.626;2023-06-04T03:03:21;16.50;99.90
68385;DHT22;55336;43.062;25.626;2023-06-04T03:05:47;16.50;99.90
68385;DHT22;55336;43.062;25.626;2023-06-04T03:08:13;16.50;99.90
68385;DHT22;55336;43.062;25.626;2023-06-04T03:10:39;16.50;99.90
68385;DHT22;55336;43.062;25.626;2023-06-04T03:13:06;16.50;99.90
68385;DHT22;55336;43.062;25.626;2023-06-04T03:15:32;16.50;99.90
68385;DHT22;55336;43.062;25.626;2023-06-04T03:17:57;16.50;99.90
68385;DHT22;55336;43.062;25.626;2023-06-04T03:20:24;16.50;99.90
68385;DHT22;55336;43.062;25.626;2023-06-04T03:22:51;16.50;99.90
68385;DHT22;55336;43.062;25.626;2023-06-04T03:25:17;16.60;99.90
68385;DHT22;55336;43.062;25.626;2023-06-04T03:27:43;16.60;99.90
68385;DHT22;55336;43.062;25.626;2023-06-04T03:30:09;16.60;99.90
68385;DHT22;55336;43.062;25.626;2023-06-04T03:32:35;16.60;99.90
68385;DHT22;55336;43.062;25.626;2023-06-04T03:35:01;16.60;99.90
68385;DHT22;55336;43.062;25.626;2023-06-04T03:37:28;16.60;99.90
68385;DHT22;55336;43.062;25.626;2023-06-04T03:39:54;16.70;99.90
68385;DHT22;55336;43.062;25.626;2023-06-04T03:42:20;16.70;99.90
68385;DHT22;55336;43.062;25.626;2023-06-04T03:44:45;16.70;99.90
68385;DHT22;55336;43.062;25.626;2023-06-04T03:47:11;16.70;99.90
68385;DHT22;55336;43.062;25.626;2023-06-04T03:49:37;16.70;99.90
68385;DHT22;55336;43.062;25.626;2023-06-04T03:52:03;16.70;99.90
68385;DHT22;55336;43.062;25.626;2023-06-04T03:54:29;16.70;99.90
68385;DHT22;55336;43.062;25.626;2023-06-04T03:56:56;16.70;99.90
68385;DHT22;55336;43.062;25.626;2023-06-04T03:59:21;16.80;99.90
68385;DHT22;55336;43.062;25.626;2023-06-04T04:01:47;16.80;99.90
68385;DHT22;55336;43.062;25.626;2023-06-04T04:04:13;16.80;99.90
68385;DHT22;55336;43.062;25.626;2023-06-04T04:06:39;16.80;99.90
68385;DHT22;55336;43.062;25.626;2023-06-04T04:09:06;16.90;99.90
68385;DHT22;55336;43.062;25.626;2023-06-04T04:11:32;16.90;99.90
68385;DHT22;55336;43.062;25.626;2023-06-04T04:13:58;16.90;99.90
68385;DHT22;55336;43.062;25.626;2023-06-04T04:16:24;17.00;99.90
68385;DHT22;55336;43.062;25.626;2023-06-04T04:18:51;17.00;99.90
68385;DHT22;55336;43.062;25.626;2023-06-04T04:21:16;17.00;99.90
68385;DHT22;55336;43.062;25.626;2023-06-04T04:23:45;16.90;99.90
68385;DHT22;55336;43.062;25.626;2023-06-04T04:26:11;16.90;99.90
68385;DHT22;55336;43.062;25.626;2023-06-04T04:28:36;16.90;99.90
68385;DHT22;55336;43.062;25.626;2023-06-04T04:31:03;16.80;99.90
68385;DHT22;55336;43.062;25.626;2023-06-04T04:33:28;16.80;99.90
68385;DHT22;55336;43.062;25.626;2023-06-04T04:35:58;16.70;99.90
68385;DHT22;55336;43.062;25.626;2023-06-04T04:38:25;16.80;99.90
68385;DHT22;55336;43.062;25.626;2023-06-04T04:40:51;16.90;99.90
68385;DHT22;55336;43.062;25.626;2023-06-04T04:43:44;16.90;99.90
68385;DHT22;55336;43.062;25.626;2023-06-04T04:46:12;16.90;99.90
68385;DHT22;55336;43.062;25.626;2023-06-04T04:48:38;16.90;99.90
68385;DHT22;55336;43.062;25.626;2023-06-04T04:51:06;16.80;99.90
68385;DHT22;55336;43.062;25.626;2023-06-04T04:53:31;16.80;99.90
68385;DHT22;55336;43.062;25.626;2023-06-04T04:55:58;16.70;99.90
68385;DHT22;55336;43.062;25.626;2023-06-04T04:58:23;16.70;99.90
68385;DHT22;55336;43.062;25.626;2023-06-04T05:00:50;16.70;99.90
68385;DHT22;55336;43.062;25.626;2023-06-04T05:03:16;16.50;99.90
68385;DHT22;55336;43.062;25.626;2023-06-04T05:05:41;16.70;99.90
68385;DHT22;55336;43.062;25.626;2023-06-04T05:08:09;16.70;99.90
68385;DHT22;55336;43.062;25.626;2023-06-04T05:10:34;16.70;99.90
68385;DHT22;55336;43.062;25.626;2023-06-04T05:13:01;16.90;99.90
68385;DHT22;55336;43.062;25.626;2023-06-04T05:15:27;17.00;99.90
68385;DHT22;55336;43.062;25.626;2023-06-04T05:17:53;17.00;99.90
68385;DHT22;55336;43.062;25.626;2023-06-04T05:20:19;17.00;99.90
68385;DHT22;55336;43.062;25.626;2023-06-04T05:22:46;17.20;99.90
68385;DHT22;55336;43.062;25.626;2023-06-04T05:25:12;17.40;99.90
68385;DHT22;55336;43.062;25.626;2023-06-04T05:27:40;17.60;99.90
68385;DHT22;55336;43.062;25.626;2023-06-04T05:30:06;17.70;99.90
68385;DHT22;55336;43.062;25.626;2023-06-04T05:32:32;17.80;99.90
68385;DHT22;55336;43.062;25.626;2023-06-04T05:34:58;17.90;99.90
68385;DHT22;55336;43.062;25.626;2023-06-04T05:37:25;18.00;99.90
68385;DHT22;55336;43.062;25.626;2023-06-04T05:39:55;18.20;99.90
68385;DHT22;55336;43.062;25.626;2023-06-04T05:42:22;18.30;99.90
68385;DHT22;55336;43.062;25.626;2023-06-04T05:44:48;18.60;99.90
68385;DHT22;55336;43.062;25.626;2023-06-04T05:47:15;18.80;99.90
68385;DHT22;55336;43.062;25.626;2023-06-04T05:49:42;18.80;99.90
68385;DHT22;55336;43.062;25.626;2023-06-04T05:52:07;18.90;99.90
68385;DHT22;55336;43.062;25.626;2023-06-04T05:54:33;19.20;99.90
68385;DHT22;55336;43.062;25.626;2023-06-04T05:56:59;19.30;99.90
68385;DHT22;55336;43.062;25.626;2023-06-04T05:59:25;19.50;99.90
68385;DHT22;55336;43.062;25.626;2023-06-04T06:01:51;19.60;99.90
68385;DHT22;55336;43.062;25.626;2023-06-04T06:04:17;19.70;99.90
68385;DHT22;55336;43.062;25.626;2023-06-04T06:06:43;19.60;99.90
68385;DHT22;55336;43.062;25.626;2023-06-04T06:09:14;19.90;99.90
68385;DHT22;55336;43.062;25.626;2023-06-04T06:11:41;20.40;99.90
68385;DHT22;55336;43.062;25.626;2023-06-04T06:14:06;21.10;99.90
68385;DHT22;55336;43.062;25.626;2023-06-04T06:16:32;21.40;99.90
68385;DHT22;55336;43.062;25.626;2023-06-04T06:18:59;22.30;99.90
68385;DHT22;55336;43.062;25.626;2023-06-04T06:21:25;23.10;99.90
68385;DHT22;55336;43.062;25.626;2023-06-04T06:23:51;23.00;99.90
68385;DHT22;55336;43.062;25.626;2023-06-04T06:26:17;23.50;99.90
68385;DHT22;55336;43.062;25.626;2023-06-04T06:28:43;24.60;99.90
68385;DHT22;55336;43.062;25.626;2023-06-04T06:31:09;25.20;99.90
68385;DHT22;55336;43.062;25.626;2023-06-04T06:33:36;25.00;99.90
68385;DHT22;55336;43.062;25.626;2023-06-04T06:36:13;24.80;99.90
68385;DHT22;55336;43.062;25.626;2023-06-04T06:38:39;24.70;99.90
68385;DHT22;55336;43.062;25.626;2023-06-04T06:41:06;24.70;99.90
68385;DHT22;55336;43.062;25.626;2023-06-04T06:43:32;25.00;99.50
68385;DHT22;55336;43.062;25.626;2023-06-04T06:45:59;24.90;99.30
68385;DHT22;55336;43.062;25.626;2023-06-04T06:48:25;24.90;99.90
68385;DHT22;55336;43.062;25.626;2023-06-04T06:50:50;24.70;99.90
68385;DHT22;55336;43.062;25.626;2023-06-04T06:53:16;24.50;99.90
68385;DHT22;55336;43.062;25.626;2023-06-04T06:55:42;24.10;99.90
68385;DHT22;55336;43.062;25.626;2023-06-04T06:58:08;24.80;99.90
68385;DHT22;55336;43.062;25.626;2023-06-04T07:00:34;25.00;99.90
68385;DHT22;55336;43.062;25.626;2023-06-04T07:03:00;23.90;99.90
68385;DHT22;55336;43.062;25.626;2023-06-04T07:05:26;23.80;99.90
68385;DHT22;55336;43.062;25.626;2023-06-04T07:07:52;24.10;99.90
68385;DHT22;55336;43.062;25.626;2023-06-04T07:10:18;24.20;99.90
68385;DHT22;55336;43.062;25.626;2023-06-04T07:12:44;24.00;99.90
68385;DHT22;55336;43.062;25.626;2023-06-04T07:15:10;23.50;99.90
68385;DHT22;55336;43.062;25.626;2023-06-04T07:17:36;23.40;99.90
68385;DHT22;55336;43.062;25.626;2023-06-04T07:20:02;23.40;99.90
68385;DHT22;55336;43.062;25.626;2023-06-04T07:22:32;23.60;99.90
68385;DHT22;55336;43.062;25.626;2023-06-04T07:24:58;23.80;99.90
68385;DHT22;55336;43.062;25.626;2023-06-04T07:27:24;23.70;99.90
68385;DHT22;55336;43.062;25.626;2023-06-04T07:29:52;23.90;99.90
68385;DHT22;55336;43.062;25.626;2023-06-04T07:32:18;24.30;99.90
68385;DHT22;55336;43.062;25.626;2023-06-04T07:34:44;24.30;99.90
68385;DHT22;55336;43.062;25.626;2023-06-04T07:37:10;24.30;99.90
68385;DHT22;55336;43.062;25.626;2023-06-04T07:39:38;24.40;99.90
68385;DHT22;55336;43.062;25.626;2023-06-04T07:42:04;24.40;99.90
68385;DHT22;55336;43.062;25.626;2023-06-04T07:44:33;24.40;99.90
68385;DHT22;55336;43.062;25.626;2023-06-04T07:46:59;24.20;99.90
68385;DHT22;55336;43.062;25.626;2023-06-04T07:49:25;24.20;99.90
68385;DHT22;55336;43.062;25.626;2023-06-04T07:51:50;24.60;99.90
68385;DHT22;55336;43.062;25.626;2023-06-04T07:54:16;25.00;99.90
68385;DHT22;55336;43.062;25.626;2023-06-04T07:56:42;25.40;99.90
68385;DHT22;55336;43.062;25.626;2023-06-04T07:59:09;25.70;99.90
68385;DHT22;55336;43.062;25.626;2023-06-04T08:01:36;26.00;99.90
68385;DHT22;55336;43.062;25.626;2023-06-04T08:04:02;26.40;94.70
68385;DHT22;55336;43.062;25.626;2023-06-04T08:06:28;26.80;93.60
68385;DHT22;55336;43.062;25.626;2023-06-04T08:08:54;26.60;93.20
68385;DHT22;55336;43.062;25.626;2023-06-04T08:11:20;26.30;93.00
68385;DHT22;55336;43.062;25.626;2023-06-04T08:13:48;26.10;95.80
68385;DHT22;55336;43.062;25.626;2023-06-04T08:16:14;26.10;94.00
68385;DHT22;55336;43.062;25.626;2023-06-04T08:18:40;25.80;93.50
68385;DHT22;55336;43.062;25.626;2023-06-04T08:21:09;26.10;94.50
68385;DHT22;55336;43.062;25.626;2023-06-04T08:23:36;26.10;92.60
68385;DHT22;55336;43.062;25.626;2023-06-04T08:26:02;25.80;92.50
68385;DHT22;55336;43.062;25.626;2023-06-04T08:28:28;26.00;94.10
68385;DHT22;55336;43.062;25.626;2023-06-04T08:30:54;25.90;92.90
68385;DHT22;55336;43.062;25.626;2023-06-04T08:33:20;25.80;92.50
68385;DHT22;55336;43.062;25.626;2023-06-04T08:35:46;25.80;91.50
68385;DHT22;55336;43.062;25.626;2023-06-04T08:38:12;25.60;90.70
68385;DHT22;55336;43.062;25.626;2023-06-04T08:40:38;25.60;90.60
68385;DHT22;55336;43.062;25.626;2023-06-04T08:43:04;26.00;93.30
68385;DHT22;55336;43.062;25.626;2023-06-04T08:45:32;26.40;88.30
68385;DHT22;55336;43.062;25.626;2023-06-04T08:47:58;25.90;85.10
68385;DHT22;55336;43.062;25.626;2023-06-04T08:50:25;25.90;88.20
68385;DHT22;55336;43.062;25.626;2023-06-04T08:52:53;26.40;85.30
68385;DHT22;55336;43.062;25.626;2023-06-04T08:55:20;27.40;81.40
68385;DHT22;55336;43.062;25.626;2023-06-04T08:57:49;26.80;79.90
68385;DHT22;55336;43.062;25.626;2023-06-04T09:00:18;27.10;81.30
68385;DHT22;55336;43.062;25.626;2023-06-04T09:02:45;27.10;78.60
68385;DHT22;55336;43.062;25.626;2023-06-04T09:05:18;26.40;80.40
68385;DHT22;55336;43.062;25.626;2023-06-04T09:07:46;26.30;81.90
68385;DHT22;55336;43.062;25.626;2023-06-04T09:10:15;26.20;85.40
68385;DHT22;55336;43.062;25.626;2023-06-04T09:12:45;26.20;81.00
68385;DHT22;55336;43.062;25.626;2023-06-04T09:15:12;26.30;80.80
68385;DHT22;55336;43.062;25.626;2023-06-04T09:17:38;26.10;78.00
68385;DHT22;55336;43.062;25.626;2023-06-04T09:20:04;26.20;78.60
68385;DHT22;55336;43.062;25.626;2023-06-04T09:22:35;26.30;77.80
68385;DHT22;55336;43.062;25.626;2023-06-04T09:25:03;26.40;77.00
68385;DHT22;55336;43.062;25.626;2023-06-04T09:27:39;26.50;76.40
68385;DHT22;55336;43.062;25.626;2023-06-04T09:30:06;27.00;76.60
68385;DHT22;55336;43.062;25.626;2023-06-04T09:32:34;27.40;74.60
68385;DHT22;55336;43.062;25.626;2023-06-04T09:35:12;27.50;74.50
68385;DHT22;55336;43.062;25.626;2023-06-04T09:37:42;28.10;71.30
68385;DHT22;55336;43.062;25.626;2023-06-04T09:40:09;27.90;67.30
68385;DHT22;55336;43.062;25.626;2023-06-04T09:43:02;27.70;67.70
68385;DHT22;55336;43.062;25.626;2023-06-04T09:45:32;27.60;69.10
68385;DHT22;55336;43.062;25.626;2023-06-04T09:48:00;27.90;69.70
68385;DHT22;55336;43.062;25.626;2023-06-04T09:50:35;27.30;76.30
68385;DHT22;55336;43.062;25.626;2023-06-04T09:53:15;27.50;69.80
68385;DHT22;55336;43.062;25.626;2023-06-04T09:55:41;28.20;67.80
68385;DHT22;55336;43.062;25.626;2023-06-04T09:58:07;28.70;65.80
68385;DHT22;55336;43.062;25.626;2023-06-04T10:00:36;29.00;63.20
68385;DHT22;55336;43.062;25.626;2023-06-04T10:03:02;29.10;62.90
68385;DHT22;55336;43.062;25.626;2023-06-04T10:05:32;29.30;61.50
68385;DHT22;55336;43.062;25.626;2023-06-04T10:08:03;29.20;58.90
68385;DHT22;55336;43.062;25.626;2023-06-04T10:10:34;28.90;64.10
68385;DHT22;55336;43.062;25.626;2023-06-04T10:13:16;29.40;61.60
68385;DHT22;55336;43.062;25.626;2023-06-04T10:15:43;29.70;57.80
68385;DHT22;55336;43.062;25.626;2023-06-04T10:18:10;29.70;58.10
68385;DHT22;55336;43.062;25.626;2023-06-04T10:20:37;29.70;57.20
68385;DHT22;55336;43.062;25.626;2023-06-04T10:23:03;29.80;57.20
68385;DHT22;55336;43.062;25.626;2023-06-04T10:25:30;29.80;57.40
68385;DHT22;55336;43.062;25.626;2023-06-04T10:27:56;29.70;58.30
68385;DHT22;55336;43.062;25.626;2023-06-04T10:30:23;29.20;57.60
68385;DHT22;55336;43.062;25.626;2023-06-04T10:32:50;28.90;60.80
68385;DHT22;55336;43.062;25.626;2023-06-04T10:35:16;29.40;58.60
68385;DHT22;55336;43.062;25.626;2023-06-04T10:37:42;30.10;61.70
68385;DHT22;55336;43.062;25.626;2023-06-04T10:40:08;30.90;55.40
68385;DHT22;55336;43.062;25.626;2023-06-04T10:42:40;28.80;55.20
68385;DHT22;55336;43.062;25.626;2023-06-04T10:45:08;27.80;63.30
68385;DHT22;55336;43.062;25.626;2023-06-04T10:47:35;28.80;62.60
68385;DHT22;55336;43.062;25.626;2023-06-04T10:50:12;30.20;57.30
68385;DHT22;55336;43.062;25.626;2023-06-04T10:52:52;28.40;59.60
68385;DHT22;55336;43.062;25.626;2023-06-04T10:55:18;28.90;62.90
68385;DHT22;55336;43.062;25.626;2023-06-04T10:57:59;30.10;58.50
68385;DHT22;55336;43.062;25.626;2023-06-04T11:00:39;29.20;57.70
68385;DHT22;55336;43.062;25.626;2023-06-04T11:03:06;29.90;56.10
68385;DHT22;55336;43.062;25.626;2023-06-04T11:05:37;30.10;54.30
68385;DHT22;55336;43.062;25.626;2023-06-04T11:08:04;30.20;55.40
68385;DHT22;55336;43.062;25.626;2023-06-04T11:10:36;30.70;52.60
68385;DHT22;55336;43.062;25.626;2023-06-04T11:13:03;30.30;51.60
68385;DHT22;55336;43.062;25.626;2023-06-04T11:15:45;30.40;55.50
68385;DHT22;55336;43.062;25.626;2023-06-04T11:18:22;30.10;53.10
68385;DHT22;55336;43.062;25.626;2023-06-04T11:21:00;29.60;56.60
68385;DHT22;55336;43.062;25.626;2023-06-04T11:23:27;29.40;53.60
68385;DHT22;55336;43.062;25.626;2023-06-04T11:25:53;29.20;54.20
68385;DHT22;55336;43.062;25.626;2023-06-04T11:28:20;29.20;55.70
68385;DHT22;55336;43.062;25.626;2023-06-04T11:30:59;29.80;55.10
68385;DHT22;55336;43.062;25.626;2023-06-04T11:33:29;30.70;52.30
68385;DHT22;55336;43.062;25.626;2023-06-04T11:35:55;31.30;50.10
68385;DHT22;55336;43.062;25.626;2023-06-04T11:38:21;30.20;50.50
68385;DHT22;55336;43.062;25.626;2023-06-04T11:40:59;29.70;56.80
68385;DHT22;55336;43.062;25.626;2023-06-04T11:43:28;30.00;54.50
68385;DHT22;55336;43.062;25.626;2023-06-04T11:45:54;29.70;53.20
68385;DHT22;55336;43.062;25.626;2023-06-04T11:48:21;29.00;56.00
68385;DHT22;55336;43.062;25.626;2023-06-04T11:50:47;28.80;55.40
68385;DHT22;55336;43.062;25.626;2023-06-04T11:53:13;28.90;55.60
68385;DHT22;55336;43.062;25.626;2023-06-04T11:55:39;29.10;55.50
68385;DHT22;55336;43.062;25.626;2023-06-04T11:58:05;29.90;55.40
68385;DHT22;55336;43.062;25.626;2023-06-04T12:00:31;30.40;53.50
68385;DHT22;55336;43.062;25.626;2023-06-04T12:03:00;31.00;51.60
68385;DHT22;55336;43.062;25.626;2023-06-04T12:05:29;30.20;50.90
68385;DHT22;55336;43.062;25.626;2023-06-04T12:08:05;29.80;55.30
68385;DHT22;55336;43.062;25.626;2023-06-04T12:10:40;31.00;51.00
68385;DHT22;55336;43.062;25.626;2023-06-04T12:13:07;31.90;51.40
68385;DHT22;55336;43.062;25.626;2023-06-04T12:15:33;32.20;50.50
68385;DHT22;55336;43.062;25.626;2023-06-04T12:17:59;32.30;49.40
68385;DHT22;55336;43.062;25.626;2023-06-04T12:20:39;32.20;48.70
68385;DHT22;55336;43.062;25.626;2023-06-04T12:23:06;31.00;50.80
68385;DHT22;55336;43.062;25.626;2023-06-04T12:25:33;30.10;51.60
68385;DHT22;55336;43.062;25.626;2023-06-04T12:27:59;29.30;54.50
68385;DHT22;55336;43.062;25.626;2023-06-04T12:30:40;29.80;54.00
68385;DHT22;55336;43.062;25.626;2023-06-04T12:33:06;30.60;51.60
68385;DHT22;55336;43.062;25.626;2023-06-04T12:35:33;31.30;51.20
68385;DHT22;55336;43.062;25.626;2023-06-04T12:37:59;32.30;48.20
68385;DHT22;55336;43.062;25.626;2023-06-04T12:40:25;32.80;46.80
68385;DHT22;55336;43.062;25.626;2023-06-04T12:42:51;32.50;46.90
68385;DHT22;55336;43.062;25.626;2023-06-04T12:45:19;31.80;47.60
68385;DHT22;55336;43.062;25.626;2023-06-04T12:47:45;31.60;49.20
68385;DHT22;55336;43.062;25.626;2023-06-04T12:50:15;31.60;47.30
68385;DHT22;55336;43.062;25.626;2023-06-04T12:52:40;31.70;47.60
68385;DHT22;55336;43.062;25.626;2023-06-04T12:55:07;31.70;50.10
68385;DHT22;55336;43.062;25.626;2023-06-04T12:57:33;31.70;47.50
68385;DHT22;55336;43.062;25.626;2023-06-04T13:00:01;31.80;48.80
68385;DHT22;55336;43.062;25.626;2023-06-04T13:02:27;32.00;49.20
68385;DHT22;55336;43.062;25.626;2023-06-04T13:04:53;32.90;47.00
68385;DHT22;55336;43.062;25.626;2023-06-04T13:07:22;33.10;46.20
68385;DHT22;55336;43.062;25.626;2023-06-04T13:09:47;32.60;44.30
68385;DHT22;55336;43.062;25.626;2023-06-04T13:12:14;31.50;46.20
68385;DHT22;55336;43.062;25.626;2023-06-04T13:14:41;30.40;47.50
68385;DHT22;55336;43.062;25.626;2023-06-04T13:17:07;31.30;47.70
68385;DHT22;55336;43.062;25.626;2023-06-04T13:19:35;31.60;45.90
68385;DHT22;55336;43.062;25.626;2023-06-04T13:22:01;31.80;47.20
68385;DHT22;55336;43.062;25.626;2023-06-04T13:24:27;31.00;48.10
68385;DHT22;55336;43.062;25.626;2023-06-04T13:26:53;30.60;48.50
68385;DHT22;55336;43.062;25.626;2023-06-04T13:29:19;31.10;50.30
68385;DHT22;55336;43.062;25.626;2023-06-04T13:31:48;31.50;46.80
68385;DHT22;55336;43.062;25.626;2023-06-04T13:34:14;32.10;45.20
68385;DHT22;55336;43.062;25.626;2023-06-04T13:36:40;32.50;43.30
68385;DHT22;55336;43.062;25.626;2023-06-04T13:39:06;32.80;45.00
68385;DHT22;55336;43.062;25.626;2023-06-04T13:41:32;33.10;43.50
68385;DHT22;55336;43.062;25.626;2023-06-04T13:43:58;32.40;42.00
68385;DHT22;55336;43.062;25.626;2023-06-04T13:46:24;32.60;45.80
68385;DHT22;55336;43.062;25.626;2023-06-04T13:48:51;32.10;42.70
68385;DHT22;55336;43.062;25.626;2023-06-04T13:51:17;31.00;47.00
68385;DHT22;55336;43.062;25.626;2023-06-04T13:53:43;30.40;45.40
68385;DHT22;55336;43.062;25.626;2023-06-04T13:56:09;29.80;47.40
68385;DHT22;55336;43.062;25.626;2023-06-04T13:58:35;28.40;50.20
68385;DHT22;55336;43.062;25.626;2023-06-04T14:01:01;28.40;52.80
68385;DHT22;55336;43.062;25.626;2023-06-04T14:03:27;28.10;52.80
68385;DHT22;55336;43.062;25.626;2023-06-04T14:05:53;27.90;52.40
68385;DHT22;55336;43.062;25.626;2023-06-04T14:08:19;27.30;51.40
68385;DHT22;55336;43.062;25.626;2023-06-04T14:10:45;27.10;53.20
68385;DHT22;55336;43.062;25.626;2023-06-04T14:13:11;26.30;60.90
68385;DHT22;55336;43.062;25.626;2023-06-04T14:15:37;26.00;59.70
68385;DHT22;55336;43.062;25.626;2023-06-04T14:18:04;26.10;60.00
68385;DHT22;55336;43.062;25.626;2023-06-04T14:20:30;26.10;59.10
68385;DHT22;55336;43.062;25.626;2023-06-04T14:22:56;26.10;58.70
68385;DHT22;55336;43.062;25.626;2023-06-04T14:25:23;26.10;56.60
68385;DHT22;55336;43.062;25.626;2023-06-04T14:27:49;26.10;59.00
68385;DHT22;55336;43.062;25.626;2023-06-04T14:30:16;26.00;56.90
68385;DHT22;55336;43.062;25.626;2023-06-04T14:32:42;26.00;56.60
68385;DHT22;55336;43.062;25.626;2023-06-04T14:35:08;25.90;56.40
68385;DHT22;55336;43.062;25.626;2023-06-04T14:37:34;25.80;61.10
68385;DHT22;55336;43.062;25.626;2023-06-04T14:40:00;25.80;61.00
68385;DHT22;55336;43.062;25.626;2023-06-04T14:42:26;25.70;62.50
68385;DHT22;55336;43.062;25.626;2023-06-04T14:44:52;25.30;63.50
68385;DHT22;55336;43.062;25.626;2023-06-04T14:47:18;25.10;71.60
68385;DHT22;55336;43.062;25.626;2023-06-04T14:49:43;25.20;66.90
68385;DHT22;55336;43.062;25.626;2023-06-04T14:52:09;25.00;69.50
68385;DHT22;55336;43.062;25.626;2023-06-04T14:54:39;24.80;71.90
68385;DHT22;55336;43.062;25.626;2023-06-04T14:57:05;24.20;76.70
68385;DHT22;55336;43.062;25.626;2023-06-04T14:59:31;23.70;80.10
68385;DHT22;55336;43.062;25.626;2023-06-04T15:02:00;23.50;85.10
68385;DHT22;55336;43.062;25.626;2023-06-04T15:04:27;23.40;90.90
68385;DHT22;55336;43.062;25.626;2023-06-04T15:06:53;23.00;97.90
68385;DHT22;55336;43.062;25.626;2023-06-04T15:09:19;23.00;99.90
68385;DHT22;55336;43.062;25.626;2023-06-04T15:11:45;22.90;99.90
68385;DHT22;55336;43.062;25.626;2023-06-04T15:14:11;22.60;99.90
68385;DHT22;55336;43.062;25.626;2023-06-04T15:16:37;22.50;99.90
68385;DHT22;55336;43.062;25.626;2023-06-04T15:19:02;22.40;99.90
68385;DHT22;55336;43.062;25.626;2023-06-04T15:21:29;22.30;99.90
68385;DHT22;55336;43.062;25.626;2023-06-04T15:23:55;22.20;99.90